sensor_id;sensor_type;location;lat;lon;timestamp;P1;durP1;ratioP1;P2;durP2;ratioP2
42168;SDS011;27838;43.858;25.974;2023-04-03T00:00:46;2.17;;;1.77;;
42168;SDS011;27838;43.858;25.974;2023-04-03T00:03:14;3.58;;;1.85;;
42168;SDS011;27838;43.858;25.974;2023-04-03T00:05:41;2.30;;;1.80;;
42168;SDS011;27838;43.858;25.974;2023-04-03T00:08:07;4.00;;;1.80;;
42168;SDS011;27838;43.858;25.974;2023-04-03T00:10:35;4.35;;;2.03;;
42168;SDS011;27838;43.858;25.974;2023-04-03T00:13:05;6.20;;;1.88;;
42168;SDS011;27838;43.858;25.974;2023-04-03T00:15:35;4.30;;;1.70;;
42168;SDS011;27838;43.858;25.974;2023-04-03T00:18:02;3.22;;;2.00;;
42168;SDS011;27838;43.858;25.974;2023-04-03T00:20:29;4.20;;;1.95;;
42168;SDS011;27838;43.858;25.974;2023-04-03T00:22:56;12.20;;;2.95;;
42168;SDS011;27838;43.858;25.974;2023-04-03T00:25:23;4.57;;;1.67;;
42168;SDS011;27838;43.858;25.974;2023-04-03T00:27:50;2.85;;;1.77;;
42168;SDS011;27838;43.858;25.974;2023-04-03T00:30:17;3.83;;;1.27;;
42168;SDS011;27838;43.858;25.974;2023-04-03T00:32:47;1.70;;;1.60;;
42168;SDS011;27838;43.858;25.974;2023-04-03T00:35:14;3.22;;;2.15;;
42168;SDS011;27838;43.858;25.974;2023-04-03T00:37:41;2.28;;;2.08;;
42168;SDS011;27838;43.858;25.974;2023-04-03T00:40:09;2.33;;;2.00;;
42168;SDS011;27838;43.858;25.974;2023-04-03T00:42:37;4.20;;;2.35;;
42168;SDS011;27838;43.858;25.974;2023-04-03T00:47:31;4.88;;;2.45;;
42168;SDS011;27838;43.858;25.974;2023-04-03T00:50:00;4.00;;;2.42;;
42168;SDS011;27838;43.858;25.974;2023-04-03T00:52:28;3.50;;;2.50;;
42168;SDS011;27838;43.858;25.974;2023-04-03T00:55:00;2.70;;;1.90;;
42168;SDS011;27838;43.858;25.974;2023-04-03T00:57:31;2.20;;;2.00;;
42168;SDS011;27838;43.858;25.974;2023-04-03T01:00:02;5.20;;;2.45;;
42168;SDS011;27838;43.858;25.974;2023-04-03T01:02:33;2.90;;;2.08;;
42168;SDS011;27838;43.858;25.974;2023-04-03T01:05:00;1.98;;;1.75;;
42168;SDS011;27838;43.858;25.974;2023-04-03T01:07:28;2.83;;;2.00;;
42168;SDS011;27838;43.858;25.974;2023-04-03T01:09:59;3.30;;;2.42;;
42168;SDS011;27838;43.858;25.974;2023-04-03T01:12:32;2.65;;;1.70;;
42168;SDS011;27838;43.858;25.974;2023-04-03T01:15:10;1.85;;;1.67;;
42168;SDS011;27838;43.858;25.974;2023-04-03T01:17:51;2.70;;;2.38;;
42168;SDS011;27838;43.858;25.974;2023-04-03T01:25:49;4.47;;;1.60;;
42168;SDS011;27838;43.858;25.974;2023-04-03T01:28:21;4.57;;;1.90;;
42168;SDS011;27838;43.858;25.974;2023-04-03T01:30:51;3.22;;;1.98;;
42168;SDS011;27838;43.858;25.974;2023-04-03T01:33:24;5.28;;;2.15;;
42168;SDS011;27838;43.858;25.974;2023-04-03T01:35:51;3.20;;;2.25;;
42168;SDS011;27838;43.858;25.974;2023-04-03T01:38:18;3.35;;;2.28;;
42168;SDS011;27838;43.858;25.974;2023-04-03T01:40:45;2.50;;;2.30;;
42168;SDS011;27838;43.858;25.974;2023-04-03T01:43:12;3.30;;;2.45;;
42168;SDS011;27838;43.858;25.974;2023-04-03T01:45:38;4.32;;;2.40;;
42168;SDS011;27838;43.858;25.974;2023-04-03T01:48:05;2.75;;;2.42;;
42168;SDS011;27838;43.858;25.974;2023-04-03T01:50:31;2.65;;;2.33;;
42168;SDS011;27838;43.858;25.974;2023-04-03T01:52:59;3.95;;;2.38;;
42168;SDS011;27838;43.858;25.974;2023-04-03T01:55:25;16.98;;;3.70;;
42168;SDS011;27838;43.858;25.974;2023-04-03T01:57:52;3.70;;;2.20;;
42168;SDS011;27838;43.858;25.974;2023-04-03T02:00:18;3.08;;;2.05;;
42168;SDS011;27838;43.858;25.974;2023-04-03T02:02:45;3.35;;;2.08;;
42168;SDS011;27838;43.858;25.974;2023-04-03T02:05:12;3.72;;;2.30;;
42168;SDS011;27838;43.858;25.974;2023-04-03T02:07:38;2.53;;;2.03;;
42168;SDS011;27838;43.858;25.974;2023-04-03T02:10:05;3.50;;;2.20;;
42168;SDS011;27838;43.858;25.974;2023-04-03T02:12:32;2.35;;;2.00;;
42168;SDS011;27838;43.858;25.974;2023-04-03T02:14:59;2.38;;;2.17;;
42168;SDS011;27838;43.858;25.974;2023-04-03T02:17:25;4.15;;;1.92;;
42168;SDS011;27838;43.858;25.974;2023-04-03T02:19:52;2.78;;;2.25;;
42168;SDS011;27838;43.858;25.974;2023-04-03T02:22:22;2.28;;;2.08;;
42168;SDS011;27838;43.858;25.974;2023-04-03T02:24:48;3.13;;;1.95;;
42168;SDS011;27838;43.858;25.974;2023-04-03T02:27:16;3.88;;;2.10;;
42168;SDS011;27838;43.858;25.974;2023-04-03T02:29:43;2.67;;;2.05;;
42168;SDS011;27838;43.858;25.974;2023-04-03T02:32:09;2.80;;;2.00;;
42168;SDS011;27838;43.858;25.974;2023-04-03T02:34:36;2.72;;;2.15;;
42168;SDS011;27838;43.858;25.974;2023-04-03T02:37:03;5.78;;;2.25;;
42168;SDS011;27838;43.858;25.974;2023-04-03T02:39:29;3.00;;;2.33;;
42168;SDS011;27838;43.858;25.974;2023-04-03T02:41:56;2.83;;;2.25;;
42168;SDS011;27838;43.858;25.974;2023-04-03T02:44:22;5.78;;;2.35;;
42168;SDS011;27838;43.858;25.974;2023-04-03T02:46:49;4.82;;;2.30;;
42168;SDS011;27838;43.858;25.974;2023-04-03T02:49:16;3.72;;;2.28;;
42168;SDS011;27838;43.858;25.974;2023-04-03T02:51:43;4.35;;;2.10;;
42168;SDS011;27838;43.858;25.974;2023-04-03T02:54:10;5.75;;;2.17;;
42168;SDS011;27838;43.858;25.974;2023-04-03T02:56:37;3.53;;;2.40;;
42168;SDS011;27838;43.858;25.974;2023-04-03T02:59:03;5.10;;;2.63;;
42168;SDS011;27838;43.858;25.974;2023-04-03T03:01:31;5.32;;;2.88;;
42168;SDS011;27838;43.858;25.974;2023-04-03T03:03:58;4.47;;;2.75;;
42168;SDS011;27838;43.858;25.974;2023-04-03T03:06:26;5.65;;;3.17;;
42168;SDS011;27838;43.858;25.974;2023-04-03T03:08:53;3.85;;;3.08;;
42168;SDS011;27838;43.858;25.974;2023-04-03T03:11:20;3.72;;;3.00;;
42168;SDS011;27838;43.858;25.974;2023-04-03T03:13:46;6.57;;;3.00;;
42168;SDS011;27838;43.858;25.974;2023-04-03T03:16:13;4.55;;;3.58;;
42168;SDS011;27838;43.858;25.974;2023-04-03T03:18:40;4.80;;;3.15;;
42168;SDS011;27838;43.858;25.974;2023-04-03T03:21:08;6.28;;;2.75;;
42168;SDS011;27838;43.858;25.974;2023-04-03T03:23:35;5.38;;;3.42;;
42168;SDS011;27838;43.858;25.974;2023-04-03T03:26:03;3.50;;;2.63;;
42168;SDS011;27838;43.858;25.974;2023-04-03T03:28:32;3.28;;;2.85;;
42168;SDS011;27838;43.858;25.974;2023-04-03T03:30:59;6.15;;;2.72;;
42168;SDS011;27838;43.858;25.974;2023-04-03T03:33:26;3.67;;;2.45;;
42168;SDS011;27838;43.858;25.974;2023-04-03T03:35:53;4.75;;;2.47;;
42168;SDS011;27838;43.858;25.974;2023-04-03T03:38:20;3.80;;;2.97;;
42168;SDS011;27838;43.858;25.974;2023-04-03T03:40:47;6.97;;;3.03;;
42168;SDS011;27838;43.858;25.974;2023-04-03T03:43:15;3.97;;;2.97;;
42168;SDS011;27838;43.858;25.974;2023-04-03T03:45:42;4.95;;;2.85;;
42168;SDS011;27838;43.858;25.974;2023-04-03T03:48:08;6.05;;;2.95;;
42168;SDS011;27838;43.858;25.974;2023-04-03T03:50:35;12.15;;;2.90;;
42168;SDS011;27838;43.858;25.974;2023-04-03T03:53:02;6.97;;;3.42;;
42168;SDS011;27838;43.858;25.974;2023-04-03T03:55:28;7.00;;;3.10;;
42168;SDS011;27838;43.858;25.974;2023-04-03T03:57:55;3.97;;;2.53;;
42168;SDS011;27838;43.858;25.974;2023-04-03T04:00:21;4.75;;;3.30;;
42168;SDS011;27838;43.858;25.974;2023-04-03T04:02:48;6.85;;;3.33;;
42168;SDS011;27838;43.858;25.974;2023-04-03T04:05:15;5.25;;;3.20;;
42168;SDS011;27838;43.858;25.974;2023-04-03T04:07:41;11.15;;;4.43;;
42168;SDS011;27838;43.858;25.974;2023-04-03T04:10:08;10.07;;;4.00;;
42168;SDS011;27838;43.858;25.974;2023-04-03T04:12:35;9.48;;;4.28;;
42168;SDS011;27838;43.858;25.974;2023-04-03T04:15:02;15.13;;;4.88;;
42168;SDS011;27838;43.858;25.974;2023-04-03T04:17:29;13.60;;;4.55;;
42168;SDS011;27838;43.858;25.974;2023-04-03T04:19:55;11.88;;;4.55;;
42168;SDS011;27838;43.858;25.974;2023-04-03T04:22:22;13.35;;;4.15;;
42168;SDS011;27838;43.858;25.974;2023-04-03T04:24:49;13.73;;;4.65;;
42168;SDS011;27838;43.858;25.974;2023-04-03T04:27:15;19.00;;;4.60;;
42168;SDS011;27838;43.858;25.974;2023-04-03T04:29:42;15.82;;;4.38;;
42168;SDS011;27838;43.858;25.974;2023-04-03T04:32:08;13.73;;;4.55;;
42168;SDS011;27838;43.858;25.974;2023-04-03T04:34:35;22.20;;;9.38;;
42168;SDS011;27838;43.858;25.974;2023-04-03T04:37:01;20.27;;;6.95;;
42168;SDS011;27838;43.858;25.974;2023-04-03T04:39:28;10.98;;;3.75;;
42168;SDS011;27838;43.858;25.974;2023-04-03T04:41:54;13.88;;;5.53;;
42168;SDS011;27838;43.858;25.974;2023-04-03T04:44:21;18.42;;;7.97;;
42168;SDS011;27838;43.858;25.974;2023-04-03T04:46:48;19.10;;;8.77;;
42168;SDS011;27838;43.858;25.974;2023-04-03T04:49:14;22.35;;;9.05;;
42168;SDS011;27838;43.858;25.974;2023-04-03T04:51:41;27.45;;;8.85;;
42168;SDS011;27838;43.858;25.974;2023-04-03T04:54:07;23.27;;;7.90;;
42168;SDS011;27838;43.858;25.974;2023-04-03T04:56:34;23.90;;;8.70;;
42168;SDS011;27838;43.858;25.974;2023-04-03T04:59:01;19.33;;;8.73;;
42168;SDS011;27838;43.858;25.974;2023-04-03T05:01:30;25.50;;;9.45;;
42168;SDS011;27838;43.858;25.974;2023-04-03T05:03:57;26.52;;;8.48;;
42168;SDS011;27838;43.858;25.974;2023-04-03T05:06:23;22.17;;;8.10;;
42168;SDS011;27838;43.858;25.974;2023-04-03T05:08:50;32.40;;;7.90;;
42168;SDS011;27838;43.858;25.974;2023-04-03T05:11:16;32.22;;;9.13;;
42168;SDS011;27838;43.858;25.974;2023-04-03T05:13:43;28.67;;;7.93;;
42168;SDS011;27838;43.858;25.974;2023-04-03T05:16:09;59.05;;;33.72;;
42168;SDS011;27838;43.858;25.974;2023-04-03T05:18:37;29.17;;;14.27;;
42168;SDS011;27838;43.858;25.974;2023-04-03T05:21:04;18.50;;;6.80;;
42168;SDS011;27838;43.858;25.974;2023-04-03T05:23:30;24.98;;;11.57;;
42168;SDS011;27838;43.858;25.974;2023-04-03T05:25:57;19.65;;;5.78;;
42168;SDS011;27838;43.858;25.974;2023-04-03T05:28:24;22.63;;;6.03;;
42168;SDS011;27838;43.858;25.974;2023-04-03T05:30:54;26.50;;;11.48;;
42168;SDS011;27838;43.858;25.974;2023-04-03T05:33:21;32.67;;;8.45;;
42168;SDS011;27838;43.858;25.974;2023-04-03T05:35:49;81.13;;;44.03;;
42168;SDS011;27838;43.858;25.974;2023-04-03T05:38:15;24.20;;;9.52;;
42168;SDS011;27838;43.858;25.974;2023-04-03T05:40:42;23.88;;;8.60;;
42168;SDS011;27838;43.858;25.974;2023-04-03T05:43:09;24.35;;;7.68;;
42168;SDS011;27838;43.858;25.974;2023-04-03T05:45:35;25.20;;;8.45;;
42168;SDS011;27838;43.858;25.974;2023-04-03T05:48:02;19.40;;;7.53;;
42168;SDS011;27838;43.858;25.974;2023-04-03T05:50:29;25.98;;;7.53;;
42168;SDS011;27838;43.858;25.974;2023-04-03T05:52:56;31.58;;;8.13;;
42168;SDS011;27838;43.858;25.974;2023-04-03T05:55:25;19.02;;;7.63;;
42168;SDS011;27838;43.858;25.974;2023-04-03T05:57:51;19.98;;;8.13;;
42168;SDS011;27838;43.858;25.974;2023-04-03T06:00:18;14.25;;;6.20;;
42168;SDS011;27838;43.858;25.974;2023-04-03T06:02:46;19.27;;;6.05;;
42168;SDS011;27838;43.858;25.974;2023-04-03T06:05:12;12.18;;;5.80;;
42168;SDS011;27838;43.858;25.974;2023-04-03T06:07:39;13.88;;;6.38;;
42168;SDS011;27838;43.858;25.974;2023-04-03T06:10:06;23.20;;;8.00;;
42168;SDS011;27838;43.858;25.974;2023-04-03T06:12:34;17.10;;;5.88;;
42168;SDS011;27838;43.858;25.974;2023-04-03T06:15:00;16.05;;;6.20;;
42168;SDS011;27838;43.858;25.974;2023-04-03T06:17:27;17.92;;;5.97;;
42168;SDS011;27838;43.858;25.974;2023-04-03T06:19:54;16.23;;;4.63;;
42168;SDS011;27838;43.858;25.974;2023-04-03T06:22:23;11.52;;;5.28;;
42168;SDS011;27838;43.858;25.974;2023-04-03T06:24:50;25.70;;;5.97;;
42168;SDS011;27838;43.858;25.974;2023-04-03T06:27:17;9.68;;;4.93;;
42168;SDS011;27838;43.858;25.974;2023-04-03T06:29:43;14.80;;;5.80;;
42168;SDS011;27838;43.858;25.974;2023-04-03T06:32:10;20.08;;;6.18;;
42168;SDS011;27838;43.858;25.974;2023-04-03T06:34:37;21.05;;;7.07;;
42168;SDS011;27838;43.858;25.974;2023-04-03T06:37:03;19.80;;;5.70;;
42168;SDS011;27838;43.858;25.974;2023-04-03T06:39:30;17.73;;;4.90;;
42168;SDS011;27838;43.858;25.974;2023-04-03T06:41:57;18.60;;;5.03;;
42168;SDS011;27838;43.858;25.974;2023-04-03T06:44:24;12.05;;;4.97;;
42168;SDS011;27838;43.858;25.974;2023-04-03T06:46:51;10.85;;;4.75;;
42168;SDS011;27838;43.858;25.974;2023-04-03T06:49:19;8.35;;;3.70;;
42168;SDS011;27838;43.858;25.974;2023-04-03T06:51:46;33.33;;;18.55;;
42168;SDS011;27838;43.858;25.974;2023-04-03T06:54:13;29.52;;;14.38;;
42168;SDS011;27838;43.858;25.974;2023-04-03T06:56:39;13.85;;;6.40;;
42168;SDS011;27838;43.858;25.974;2023-04-03T06:59:06;10.00;;;5.57;;
42168;SDS011;27838;43.858;25.974;2023-04-03T07:01:34;10.77;;;5.82;;
42168;SDS011;27838;43.858;25.974;2023-04-03T07:04:01;16.20;;;4.57;;
42168;SDS011;27838;43.858;25.974;2023-04-03T07:06:27;9.07;;;5.53;;
42168;SDS011;27838;43.858;25.974;2023-04-03T07:08:55;8.40;;;4.35;;
42168;SDS011;27838;43.858;25.974;2023-04-03T07:11:25;34.50;;;20.65;;
42168;SDS011;27838;43.858;25.974;2023-04-03T07:13:52;11.85;;;6.78;;
42168;SDS011;27838;43.858;25.974;2023-04-03T07:16:19;27.77;;;17.08;;
42168;SDS011;27838;43.858;25.974;2023-04-03T07:18:46;16.00;;;9.02;;
42168;SDS011;27838;43.858;25.974;2023-04-03T07:21:12;38.15;;;28.30;;
42168;SDS011;27838;43.858;25.974;2023-04-03T07:23:39;17.70;;;5.72;;
42168;SDS011;27838;43.858;25.974;2023-04-03T07:26:06;29.33;;;14.88;;
42168;SDS011;27838;43.858;25.974;2023-04-03T07:28:33;34.70;;;19.30;;
42168;SDS011;27838;43.858;25.974;2023-04-03T07:31:01;11.02;;;7.68;;
42168;SDS011;27838;43.858;25.974;2023-04-03T07:33:33;18.10;;;5.25;;
42168;SDS011;27838;43.858;25.974;2023-04-03T07:36:00;11.15;;;4.70;;
42168;SDS011;27838;43.858;25.974;2023-04-03T07:38:27;9.70;;;5.20;;
42168;SDS011;27838;43.858;25.974;2023-04-03T07:40:54;8.98;;;6.35;;
42168;SDS011;27838;43.858;25.974;2023-04-03T07:43:21;7.70;;;5.72;;
42168;SDS011;27838;43.858;25.974;2023-04-03T07:45:49;18.98;;;10.20;;
42168;SDS011;27838;43.858;25.974;2023-04-03T07:48:17;11.43;;;5.07;;
42168;SDS011;27838;43.858;25.974;2023-04-03T07:50:46;8.93;;;4.70;;
42168;SDS011;27838;43.858;25.974;2023-04-03T07:53:12;12.85;;;5.22;;
42168;SDS011;27838;43.858;25.974;2023-04-03T07:55:39;11.88;;;5.80;;
42168;SDS011;27838;43.858;25.974;2023-04-03T07:58:09;12.88;;;5.65;;
42168;SDS011;27838;43.858;25.974;2023-04-03T08:00:38;14.63;;;5.15;;
42168;SDS011;27838;43.858;25.974;2023-04-03T08:03:05;22.27;;;11.85;;
42168;SDS011;27838;43.858;25.974;2023-04-03T08:05:39;26.40;;;6.47;;
42168;SDS011;27838;43.858;25.974;2023-04-03T08:08:07;13.20;;;4.95;;
42168;SDS011;27838;43.858;25.974;2023-04-03T08:10:35;46.58;;;29.67;;
42168;SDS011;27838;43.858;25.974;2023-04-03T08:13:02;27.35;;;13.35;;
42168;SDS011;27838;43.858;25.974;2023-04-03T08:15:30;15.20;;;6.03;;
42168;SDS011;27838;43.858;25.974;2023-04-03T08:17:57;17.92;;;5.75;;
42168;SDS011;27838;43.858;25.974;2023-04-03T08:20:25;10.50;;;4.43;;
42168;SDS011;27838;43.858;25.974;2023-04-03T08:22:52;9.68;;;4.75;;
42168;SDS011;27838;43.858;25.974;2023-04-03T08:25:19;5.57;;;4.22;;
42168;SDS011;27838;43.858;25.974;2023-04-03T08:27:46;8.57;;;4.07;;
42168;SDS011;27838;43.858;25.974;2023-04-03T08:30:12;6.30;;;3.92;;
42168;SDS011;27838;43.858;25.974;2023-04-03T08:32:40;24.33;;;4.82;;
42168;SDS011;27838;43.858;25.974;2023-04-03T08:35:08;11.27;;;4.07;;
42168;SDS011;27838;43.858;25.974;2023-04-03T08:37:35;6.53;;;4.10;;
42168;SDS011;27838;43.858;25.974;2023-04-03T08:40:06;9.38;;;4.20;;
42168;SDS011;27838;43.858;25.974;2023-04-03T08:42:38;7.60;;;4.75;;
42168;SDS011;27838;43.858;25.974;2023-04-03T08:48:15;9.00;;;3.90;;
42168;SDS011;27838;43.858;25.974;2023-04-03T08:50:51;9.50;;;4.03;;
42168;SDS011;27838;43.858;25.974;2023-04-03T08:55:52;11.10;;;4.78;;
42168;SDS011;27838;43.858;25.974;2023-04-03T08:58:21;11.10;;;4.07;;
42168;SDS011;27838;43.858;25.974;2023-04-03T09:03:20;16.63;;;4.65;;
42168;SDS011;27838;43.858;25.974;2023-04-03T09:08:33;12.63;;;5.15;;
42168;SDS011;27838;43.858;25.974;2023-04-03T09:13:53;9.73;;;4.10;;
42168;SDS011;27838;43.858;25.974;2023-04-03T09:19:13;11.27;;;4.20;;
42168;SDS011;27838;43.858;25.974;2023-04-03T09:21:46;8.68;;;4.03;;
42168;SDS011;27838;43.858;25.974;2023-04-03T09:24:14;21.65;;;6.22;;
42168;SDS011;27838;43.858;25.974;2023-04-03T09:29:18;14.63;;;5.43;;
42168;SDS011;27838;43.858;25.974;2023-04-03T09:31:48;11.68;;;4.35;;
42168;SDS011;27838;43.858;25.974;2023-04-03T09:37:08;27.90;;;7.40;;
42168;SDS011;27838;43.858;25.974;2023-04-03T09:42:59;19.52;;;5.75;;
42168;SDS011;27838;43.858;25.974;2023-04-03T09:45:28;16.17;;;4.93;;
42168;SDS011;27838;43.858;25.974;2023-04-03T09:50:52;16.88;;;4.63;;
42168;SDS011;27838;43.858;25.974;2023-04-03T09:53:27;21.42;;;5.72;;
42168;SDS011;27838;43.858;25.974;2023-04-03T09:55:54;22.83;;;5.18;;
42168;SDS011;27838;43.858;25.974;2023-04-03T09:58:29;16.60;;;5.43;;
42168;SDS011;27838;43.858;25.974;2023-04-03T10:01:08;19.33;;;5.05;;
42168;SDS011;27838;43.858;25.974;2023-04-03T10:11:59;7.63;;;3.63;;
42168;SDS011;27838;43.858;25.974;2023-04-03T10:14:26;6.07;;;3.30;;
42168;SDS011;27838;43.858;25.974;2023-04-03T10:16:57;14.98;;;4.82;;
42168;SDS011;27838;43.858;25.974;2023-04-03T10:36:43;16.27;;;4.80;;
42168;SDS011;27838;43.858;25.974;2023-04-03T10:39:12;15.55;;;5.32;;
42168;SDS011;27838;43.858;25.974;2023-04-03T10:47:54;7.45;;;3.75;;
42168;SDS011;27838;43.858;25.974;2023-04-03T10:50:31;8.75;;;3.25;;
42168;SDS011;27838;43.858;25.974;2023-04-03T10:53:18;7.70;;;2.80;;
42168;SDS011;27838;43.858;25.974;2023-04-03T10:58:29;9.27;;;4.05;;
42168;SDS011;27838;43.858;25.974;2023-04-03T11:01:16;7.93;;;3.42;;
42168;SDS011;27838;43.858;25.974;2023-04-03T11:03:50;4.10;;;2.97;;
42168;SDS011;27838;43.858;25.974;2023-04-03T11:06:21;10.38;;;3.65;;
42168;SDS011;27838;43.858;25.974;2023-04-03T11:09:00;7.43;;;3.25;;
42168;SDS011;27838;43.858;25.974;2023-04-03T11:11:43;10.10;;;3.80;;
42168;SDS011;27838;43.858;25.974;2023-04-03T11:14:29;10.27;;;3.53;;
42168;SDS011;27838;43.858;25.974;2023-04-03T11:22:39;7.15;;;3.25;;
42168;SDS011;27838;43.858;25.974;2023-04-03T11:27:41;14.85;;;3.78;;
42168;SDS011;27838;43.858;25.974;2023-04-03T11:30:18;5.10;;;2.65;;
42168;SDS011;27838;43.858;25.974;2023-04-03T11:35:26;8.38;;;3.88;;
42168;SDS011;27838;43.858;25.974;2023-04-03T11:37:54;12.55;;;2.90;;
42168;SDS011;27838;43.858;25.974;2023-04-03T11:40:22;7.18;;;2.47;;
42168;SDS011;27838;43.858;25.974;2023-04-03T11:42:54;6.05;;;2.30;;
42168;SDS011;27838;43.858;25.974;2023-04-03T11:48:02;12.68;;;3.17;;
42168;SDS011;27838;43.858;25.974;2023-04-03T11:53:47;6.40;;;1.92;;
42168;SDS011;27838;43.858;25.974;2023-04-03T11:56:26;2.83;;;1.75;;
42168;SDS011;27838;43.858;25.974;2023-04-03T12:01:45;11.35;;;3.25;;
42168;SDS011;27838;43.858;25.974;2023-04-03T12:04:15;8.82;;;3.10;;
42168;SDS011;27838;43.858;25.974;2023-04-03T12:06:49;11.32;;;2.88;;
42168;SDS011;27838;43.858;25.974;2023-04-03T12:09:24;8.85;;;2.17;;
42168;SDS011;27838;43.858;25.974;2023-04-03T12:11:54;9.55;;;2.42;;
42168;SDS011;27838;43.858;25.974;2023-04-03T12:14:23;11.23;;;3.70;;
42168;SDS011;27838;43.858;25.974;2023-04-03T12:16:52;30.42;;;4.20;;
42168;SDS011;27838;43.858;25.974;2023-04-03T12:19:38;7.60;;;3.20;;
42168;SDS011;27838;43.858;25.974;2023-04-03T12:24:46;9.15;;;2.45;;
42168;SDS011;27838;43.858;25.974;2023-04-03T12:35:44;13.93;;;4.50;;
42168;SDS011;27838;43.858;25.974;2023-04-03T12:38:26;10.45;;;2.88;;
42168;SDS011;27838;43.858;25.974;2023-04-03T12:44:16;11.40;;;3.30;;
42168;SDS011;27838;43.858;25.974;2023-04-03T12:46:50;9.27;;;3.85;;
42168;SDS011;27838;43.858;25.974;2023-04-03T12:52:30;14.68;;;6.78;;
42168;SDS011;27838;43.858;25.974;2023-04-03T12:54:54;10.55;;;3.60;;
42168;SDS011;27838;43.858;25.974;2023-04-03T12:57:25;9.27;;;2.72;;
42168;SDS011;27838;43.858;25.974;2023-04-03T12:59:53;14.35;;;3.28;;
42168;SDS011;27838;43.858;25.974;2023-04-03T13:02:25;10.32;;;2.95;;
42168;SDS011;27838;43.858;25.974;2023-04-03T13:04:57;4.47;;;2.78;;
42168;SDS011;27838;43.858;25.974;2023-04-03T13:07:32;13.95;;;3.33;;
42168;SDS011;27838;43.858;25.974;2023-04-03T13:12:32;6.13;;;2.80;;
42168;SDS011;27838;43.858;25.974;2023-04-03T13:15:13;17.52;;;5.30;;
42168;SDS011;27838;43.858;25.974;2023-04-03T13:17:45;21.67;;;7.47;;
42168;SDS011;27838;43.858;25.974;2023-04-03T13:20:18;16.02;;;7.35;;
42168;SDS011;27838;43.858;25.974;2023-04-03T13:22:48;7.95;;;4.20;;
42168;SDS011;27838;43.858;25.974;2023-04-03T13:25:18;9.77;;;4.53;;
42168;SDS011;27838;43.858;25.974;2023-04-03T13:27:47;11.60;;;5.00;;
42168;SDS011;27838;43.858;25.974;2023-04-03T13:30:34;16.35;;;7.10;;
42168;SDS011;27838;43.858;25.974;2023-04-03T13:33:04;32.00;;;8.70;;
42168;SDS011;27838;43.858;25.974;2023-04-03T13:38:02;14.10;;;4.47;;
42168;SDS011;27838;43.858;25.974;2023-04-03T13:40:32;7.28;;;3.50;;
42168;SDS011;27838;43.858;25.974;2023-04-03T13:43:04;14.23;;;4.28;;
42168;SDS011;27838;43.858;25.974;2023-04-03T13:45:40;14.00;;;5.05;;
42168;SDS011;27838;43.858;25.974;2023-04-03T13:48:24;10.23;;;4.88;;
42168;SDS011;27838;43.858;25.974;2023-04-03T13:50:53;8.20;;;3.92;;
42168;SDS011;27838;43.858;25.974;2023-04-03T13:53:25;9.80;;;4.65;;
42168;SDS011;27838;43.858;25.974;2023-04-03T13:58:53;22.42;;;6.28;;
42168;SDS011;27838;43.858;25.974;2023-04-03T14:01:39;6.13;;;4.13;;
42168;SDS011;27838;43.858;25.974;2023-04-03T14:04:13;17.73;;;4.68;;
42168;SDS011;27838;43.858;25.974;2023-04-03T14:06:46;9.57;;;6.30;;
42168;SDS011;27838;43.858;25.974;2023-04-03T14:09:14;12.77;;;6.00;;
42168;SDS011;27838;43.858;25.974;2023-04-03T14:11:42;11.13;;;5.55;;
42168;SDS011;27838;43.858;25.974;2023-04-03T14:14:43;11.52;;;5.68;;
42168;SDS011;27838;43.858;25.974;2023-04-03T14:17:14;12.20;;;5.35;;
42168;SDS011;27838;43.858;25.974;2023-04-03T14:19:49;12.27;;;5.88;;
42168;SDS011;27838;43.858;25.974;2023-04-03T14:22:35;9.35;;;5.97;;
42168;SDS011;27838;43.858;25.974;2023-04-03T14:25:02;8.73;;;5.13;;
42168;SDS011;27838;43.858;25.974;2023-04-03T14:27:31;7.30;;;4.90;;
42168;SDS011;27838;43.858;25.974;2023-04-03T14:30:05;12.18;;;5.38;;
42168;SDS011;27838;43.858;25.974;2023-04-03T14:32:34;12.40;;;5.60;;
42168;SDS011;27838;43.858;25.974;2023-04-03T14:35:01;12.85;;;5.78;;
42168;SDS011;27838;43.858;25.974;2023-04-03T14:37:29;7.13;;;5.10;;
42168;SDS011;27838;43.858;25.974;2023-04-03T14:39:58;11.10;;;6.18;;
42168;SDS011;27838;43.858;25.974;2023-04-03T14:42:30;11.15;;;5.15;;
42168;SDS011;27838;43.858;25.974;2023-04-03T14:44:59;15.98;;;5.32;;
42168;SDS011;27838;43.858;25.974;2023-04-03T14:47:28;17.15;;;5.05;;
42168;SDS011;27838;43.858;25.974;2023-04-03T14:49:56;9.77;;;5.20;;
42168;SDS011;27838;43.858;25.974;2023-04-03T14:52:26;5.60;;;4.50;;
42168;SDS011;27838;43.858;25.974;2023-04-03T14:54:55;9.50;;;5.40;;
42168;SDS011;27838;43.858;25.974;2023-04-03T14:57:25;12.48;;;5.38;;
42168;SDS011;27838;43.858;25.974;2023-04-03T14:59:54;7.78;;;5.65;;
42168;SDS011;27838;43.858;25.974;2023-04-03T15:02:24;11.10;;;4.85;;
42168;SDS011;27838;43.858;25.974;2023-04-03T15:04:56;10.70;;;5.40;;
42168;SDS011;27838;43.858;25.974;2023-04-03T15:07:24;9.07;;;6.30;;
42168;SDS011;27838;43.858;25.974;2023-04-03T15:09:52;10.15;;;5.93;;
42168;SDS011;27838;43.858;25.974;2023-04-03T15:12:21;7.65;;;5.57;;
42168;SDS011;27838;43.858;25.974;2023-04-03T15:14:48;10.65;;;6.60;;
42168;SDS011;27838;43.858;25.974;2023-04-03T15:17:16;8.45;;;6.15;;
42168;SDS011;27838;43.858;25.974;2023-04-03T15:19:46;13.63;;;6.30;;
42168;SDS011;27838;43.858;25.974;2023-04-03T15:22:13;10.38;;;6.63;;
42168;SDS011;27838;43.858;25.974;2023-04-03T15:24:42;17.75;;;9.20;;
42168;SDS011;27838;43.858;25.974;2023-04-03T15:27:10;22.25;;;8.60;;
42168;SDS011;27838;43.858;25.974;2023-04-03T15:29:38;14.27;;;8.70;;
42168;SDS011;27838;43.858;25.974;2023-04-03T15:32:07;19.25;;;12.30;;
42168;SDS011;27838;43.858;25.974;2023-04-03T15:34:34;11.65;;;7.53;;
42168;SDS011;27838;43.858;25.974;2023-04-03T15:37:02;13.60;;;8.90;;
42168;SDS011;27838;43.858;25.974;2023-04-03T15:39:28;10.98;;;7.53;;
42168;SDS011;27838;43.858;25.974;2023-04-03T15:41:55;15.10;;;9.18;;
42168;SDS011;27838;43.858;25.974;2023-04-03T15:44:24;21.63;;;17.58;;
42168;SDS011;27838;43.858;25.974;2023-04-03T15:46:51;14.85;;;10.48;;
42168;SDS011;27838;43.858;25.974;2023-04-03T15:49:18;11.82;;;8.10;;
42168;SDS011;27838;43.858;25.974;2023-04-03T15:51:47;16.83;;;10.77;;
42168;SDS011;27838;43.858;25.974;2023-04-03T15:54:16;15.60;;;9.25;;
42168;SDS011;27838;43.858;25.974;2023-04-03T15:56:54;16.63;;;9.15;;
42168;SDS011;27838;43.858;25.974;2023-04-03T15:59:21;15.68;;;12.15;;
42168;SDS011;27838;43.858;25.974;2023-04-03T16:01:48;16.73;;;11.40;;
42168;SDS011;27838;43.858;25.974;2023-04-03T16:04:15;14.73;;;8.85;;
42168;SDS011;27838;43.858;25.974;2023-04-03T16:06:43;13.45;;;9.90;;
42168;SDS011;27838;43.858;25.974;2023-04-03T16:09:09;15.07;;;8.48;;
42168;SDS011;27838;43.858;25.974;2023-04-03T16:11:37;10.68;;;8.43;;
42168;SDS011;27838;43.858;25.974;2023-04-03T16:14:05;15.13;;;10.85;;
42168;SDS011;27838;43.858;25.974;2023-04-03T16:16:33;17.10;;;10.10;;
42168;SDS011;27838;43.858;25.974;2023-04-03T16:18:59;18.05;;;10.02;;
42168;SDS011;27838;43.858;25.974;2023-04-03T16:21:26;15.68;;;8.98;;
42168;SDS011;27838;43.858;25.974;2023-04-03T16:23:55;11.38;;;8.43;;
42168;SDS011;27838;43.858;25.974;2023-04-03T16:26:24;36.92;;;23.45;;
42168;SDS011;27838;43.858;25.974;2023-04-03T16:28:51;25.15;;;14.48;;
42168;SDS011;27838;43.858;25.974;2023-04-03T16:31:19;42.08;;;25.02;;